Terminal Aerodrome Forecast
Issued by NWS

Home | Current Version | Previous Version | Text Only | Print | Product List | Glossary On
Versions: 1 2 3 4 5 6 7 8 9 10 11 12 13 14 15 16 17 18 19 20 21 22 23 24 25 26
000
FTUS46 KMFR 310201 AAB
TAFRBG
TAF AMD
KRBG 310201Z 3102/3124 01003KT P6SM OVC012
     FM310400 00000KT P6SM SCT003 BKN009 BKN012
     FM310900 00000KT 3SM BR OVC003
     FM311100 00000KT 1/2SM FG VV002
     FM311800 00000KT 2SM BR SCT003 OVC007
     FM312300 35003KT P6SM FEW007 BKN200=

USA.gov is the U.S. government's official web portal to all federal, state and local government web resources and services.